Spokane, Louisiana
Current Conditions -  °F | °C
As of 6:35 PM on Wednesday 24 Dec 2014 (Local Time) from KHEZ Reporting Station
Overcast Overcast  
Wind Chill: 43°   Ceiling: 5000
Heat Index: 46°   Visibility: 10mi
Dew Point: 36°   Wind: 7mph
Humidity: 66%   Direction: 270°W
Pressure: 30.03"   Gusts: NA
Location:  31.6488°N, 91.6098°W
Report Text: KHEZ 250035Z AUTO 27006KT 10SM OVC050 08/02 A3003 RMK AO1
Loading
Personal Weather Stations






























Interactive Weather Map New forecast layout! Learn more

10-Day Weather Forecast

Advertisements
Track Severe Weather on mobile